気象予報士の航空気象 上空に寒気あり

*All archives   *Admin

スポンサーサイト

上記の広告は1ヶ月以上更新のないブログに表示されています。
新しい記事を書く事で広告が消せます。
--:--  |  スポンサー広告  |  EDIT  |  Top↑

2010.06.04 (Fri)

上空に寒気あり

RJTT 040500Z 18018KT 9999 FEW030 25/15 Q1013 RMK 1CU030 A2992


RJTT 041330Z 13011KT 9999 -SHRA FEW030 BKN120 20/16 Q1013 RMK 1CU030 6AC120 A2992


天気予報の予報どおり、夜に雨が降り始めました。


遠くで雷鳴が聞こえます。


昼は低い積雲が昨日より多く、房総半島や栃木のほうに雄大積雲が見えます。


これらが発達したのでしょうか?





6月3日に桜島で噴煙があがりました。


桜島:また噴火、2日連続「ドカ灰」 鹿児島市街地、清掃・散水車が出動 /鹿児島
6月4日16時51分配信 毎日新聞

 桜島の昭和火口で2日にあった噴火で「灰神楽」となった鹿児島市街地では3日早朝から、後片づけに追われた。だが、午後2時13分に再び昭和火口で噴火を観測。噴煙が1200メートル上がり、市街地に2日連続の「ドカ灰」が降った。
 市役所前の歩道も一面灰色一色。午前中に散水車が乗り付け、作業員がブラシを使いながら洗い流した。
 市によると、路面清掃車や散水車など計59台を出動させ、3日間程度で清掃を終わらせたいという。克灰袋を甲突町や照国町など市内29町2万世帯に4日から配布する。克灰袋は地域福祉館や支所でも配布しており、配布世帯の拡大も検討している。
 鹿児島地方気象台によると、灰を洗い流してくれる雨は「しばらく期待できない」という。

 
ブログランキングに参加しています。
にほんブログ村 環境ブログ 天気・気象学へ
にほんブログ村
応援クリックをおねがします。


以下、アフィリエイトサイトです。




スポンサーサイト
23:01  |  気象・天気  |  TB(0)  |  CM(0)  |  EDIT  |  Top↑

コメントを投稿する


 管理者だけに表示  (非公開コメント投稿可能)

▲PageTop

この記事のトラックバックURL

→http://weathereucalyptus.blog115.fc2.com/tb.php/506-8f314827
この記事にトラックバックする(FC2ブログユーザー)

この記事へのトラックバック

▲PageTop

 | BLOGTOP | 
上記広告は1ヶ月以上更新のないブログに表示されています。新しい記事を書くことで広告を消せます。